sensor_id;sensor_type;location;lat;lon;timestamp;temperature;humidity
2062;DHT22;11070;51.336;12.340;2023-04-25T00:02:21;7.80;99.90
2062;DHT22;11070;51.336;12.340;2023-04-25T00:04:47;7.90;78.00
2062;DHT22;11070;51.336;12.340;2023-04-25T00:07:14;7.80;90.40
2062;DHT22;11070;51.336;12.340;2023-04-25T00:09:41;7.80;99.90
2062;DHT22;11070;51.336;12.340;2023-04-25T00:12:07;7.80;99.90
2062;DHT22;11070;51.336;12.340;2023-04-25T00:14:33;7.80;99.90
2062;DHT22;11070;51.336;12.340;2023-04-25T00:16:59;7.80;99.90
2062;DHT22;11070;51.336;12.340;2023-04-25T00:19:26;7.70;99.90
2062;DHT22;11070;51.336;12.340;2023-04-25T00:21:56;7.70;1.00
2062;DHT22;11070;51.336;12.340;2023-04-25T00:24:22;7.60;1.00
2062;DHT22;11070;51.336;12.340;2023-04-25T00:26:48;7.50;1.00
2062;DHT22;11070;51.336;12.340;2023-04-25T00:29:14;7.50;1.00
2062;DHT22;11070;51.336;12.340;2023-04-25T00:31:40;7.40;1.00
2062;DHT22;11070;51.336;12.340;2023-04-25T00:34:06;7.30;22.20
2062;DHT22;11070;51.336;12.340;2023-04-25T00:36:33;7.30;99.90
2062;DHT22;11070;51.336;12.340;2023-04-25T00:38:59;7.20;99.90
2062;DHT22;11070;51.336;12.340;2023-04-25T00:41:25;7.20;99.90
2062;DHT22;11070;51.336;12.340;2023-04-25T00:43:53;7.10;99.90
2062;DHT22;11070;51.336;12.340;2023-04-25T00:46:19;7.10;1.00
2062;DHT22;11070;51.336;12.340;2023-04-25T00:48:45;7.00;1.00
2062;DHT22;11070;51.336;12.340;2023-04-25T00:51:15;7.00;1.00
2062;DHT22;11070;51.336;12.340;2023-04-25T00:53:41;6.90;1.00
2062;DHT22;11070;51.336;12.340;2023-04-25T00:56:07;6.90;1.00
2062;DHT22;11070;51.336;12.340;2023-04-25T00:58:33;6.80;1.00
2062;DHT22;11070;51.336;12.340;2023-04-25T01:00:59;6.80;1.00
2062;DHT22;11070;51.336;12.340;2023-04-25T01:03:25;6.70;13.60
2062;DHT22;11070;51.336;12.340;2023-04-25T01:05:54;6.70;99.90
2062;DHT22;11070;51.336;12.340;2023-04-25T01:08:24;6.60;99.90
2062;DHT22;11070;51.336;12.340;2023-04-25T01:10:52;6.60;99.90
2062;DHT22;11070;51.336;12.340;2023-04-25T01:13:18;6.60;99.90
2062;DHT22;11070;51.336;12.340;2023-04-25T01:15:44;6.60;44.20
2062;DHT22;11070;51.336;12.340;2023-04-25T01:18:10;6.60;29.30
2062;DHT22;11070;51.336;12.340;2023-04-25T01:20:37;6.60;1.00
2062;DHT22;11070;51.336;12.340;2023-04-25T01:23:04;6.60;1.00
2062;DHT22;11070;51.336;12.340;2023-04-25T01:25:32;6.50;1.00
2062;DHT22;11070;51.336;12.340;2023-04-25T01:27:59;6.50;1.00
2062;DHT22;11070;51.336;12.340;2023-04-25T01:30:26;6.50;1.00
2062;DHT22;11070;51.336;12.340;2023-04-25T01:32:55;6.50;1.00
2062;DHT22;11070;51.336;12.340;2023-04-25T01:35:21;6.50;1.00
2062;DHT22;11070;51.336;12.340;2023-04-25T01:37:49;6.40;1.00
2062;DHT22;11070;51.336;12.340;2023-04-25T01:40:15;6.50;1.00
2062;DHT22;11070;51.336;12.340;2023-04-25T01:42:43;6.50;1.00
2062;DHT22;11070;51.336;12.340;2023-04-25T01:45:09;6.50;1.00
2062;DHT22;11070;51.336;12.340;2023-04-25T01:47:36;6.50;1.00
2062;DHT22;11070;51.336;12.340;2023-04-25T01:50:04;6.50;99.90
2062;DHT22;11070;51.336;12.340;2023-04-25T01:52:30;6.50;99.90
2062;DHT22;11070;51.336;12.340;2023-04-25T01:54:57;6.50;99.90
2062;DHT22;11070;51.336;12.340;2023-04-25T01:57:23;6.50;84.50
2062;DHT22;11070;51.336;12.340;2023-04-25T01:59:49;6.50;1.00
2062;DHT22;11070;51.336;12.340;2023-04-25T02:02:15;6.60;1.00
2062;DHT22;11070;51.336;12.340;2023-04-25T02:04:41;6.60;1.00
2062;DHT22;11070;51.336;12.340;2023-04-25T02:07:06;6.60;1.00
2062;DHT22;11070;51.336;12.340;2023-04-25T02:09:32;6.70;99.90
2062;DHT22;11070;51.336;12.340;2023-04-25T02:11:58;6.70;99.90
2062;DHT22;11070;51.336;12.340;2023-04-25T02:14:24;6.70;99.90
2062;DHT22;11070;51.336;12.340;2023-04-25T02:16:49;6.70;99.90
2062;DHT22;11070;51.336;12.340;2023-04-25T02:19:16;6.80;99.90
2062;DHT22;11070;51.336;12.340;2023-04-25T02:21:42;6.80;14.50
2062;DHT22;11070;51.336;12.340;2023-04-25T02:24:08;6.80;1.00
2062;DHT22;11070;51.336;12.340;2023-04-25T02:26:34;6.80;1.00
2062;DHT22;11070;51.336;12.340;2023-04-25T02:28:59;6.80;1.00
2062;DHT22;11070;51.336;12.340;2023-04-25T02:31:26;6.70;1.00
2062;DHT22;11070;51.336;12.340;2023-04-25T02:33:52;6.70;21.90
2062;DHT22;11070;51.336;12.340;2023-04-25T02:36:17;6.70;3.20
2062;DHT22;11070;51.336;12.340;2023-04-25T02:38:43;6.70;1.00
2062;DHT22;11070;51.336;12.340;2023-04-25T02:41:09;6.60;1.00
2062;DHT22;11070;51.336;12.340;2023-04-25T02:43:35;6.60;1.00
2062;DHT22;11070;51.336;12.340;2023-04-25T02:46:00;6.60;1.00
2062;DHT22;11070;51.336;12.340;2023-04-25T02:48:26;6.60;1.00
2062;DHT22;11070;51.336;12.340;2023-04-25T02:50:51;6.50;1.00
2062;DHT22;11070;51.336;12.340;2023-04-25T02:53:17;6.50;21.50
2062;DHT22;11070;51.336;12.340;2023-04-25T02:55:43;6.40;99.90
2062;DHT22;11070;51.336;12.340;2023-04-25T02:58:08;6.40;99.90
2062;DHT22;11070;51.336;12.340;2023-04-25T03:00:35;6.40;99.90
2062;DHT22;11070;51.336;12.340;2023-04-25T03:03:01;6.30;1.00
2062;DHT22;11070;51.336;12.340;2023-04-25T03:05:26;6.30;1.00
2062;DHT22;11070;51.336;12.340;2023-04-25T03:07:52;6.20;1.00
2062;DHT22;11070;51.336;12.340;2023-04-25T03:10:18;6.20;6.30
2062;DHT22;11070;51.336;12.340;2023-04-25T03:12:43;6.20;7.10
2062;DHT22;11070;51.336;12.340;2023-04-25T03:15:09;6.10;99.90
2062;DHT22;11070;51.336;12.340;2023-04-25T03:17:35;6.10;99.90
2062;DHT22;11070;51.336;12.340;2023-04-25T03:20:01;6.10;99.90
2062;DHT22;11070;51.336;12.340;2023-04-25T03:22:27;6.10;99.90
2062;DHT22;11070;51.336;12.340;2023-04-25T03:24:52;6.10;99.90
2062;DHT22;11070;51.336;12.340;2023-04-25T03:27:18;6.10;99.60
2062;DHT22;11070;51.336;12.340;2023-04-25T03:29:43;6.10;75.80
2062;DHT22;11070;51.336;12.340;2023-04-25T03:32:09;6.10;99.90
2062;DHT22;11070;51.336;12.340;2023-04-25T03:34:35;6.00;99.90
2062;DHT22;11070;51.336;12.340;2023-04-25T03:37:00;6.00;99.90
2062;DHT22;11070;51.336;12.340;2023-04-25T03:39:26;6.00;99.90
2062;DHT22;11070;51.336;12.340;2023-04-25T03:41:52;6.00;99.90
2062;DHT22;11070;51.336;12.340;2023-04-25T03:44:17;6.00;99.90
2062;DHT22;11070;51.336;12.340;2023-04-25T03:46:43;6.00;89.30
2062;DHT22;11070;51.336;12.340;2023-04-25T03:49:09;6.00;1.00
2062;DHT22;11070;51.336;12.340;2023-04-25T03:51:34;6.00;1.00
2062;DHT22;11070;51.336;12.340;2023-04-25T03:54:00;6.00;1.00
2062;DHT22;11070;51.336;12.340;2023-04-25T03:56:26;6.00;1.00
2062;DHT22;11070;51.336;12.340;2023-04-25T03:58:52;6.00;1.00
2062;DHT22;11070;51.336;12.340;2023-04-25T04:01:17;5.90;1.00
2062;DHT22;11070;51.336;12.340;2023-04-25T04:03:43;5.90;1.00
2062;DHT22;11070;51.336;12.340;2023-04-25T04:06:10;5.90;1.00
2062;DHT22;11070;51.336;12.340;2023-04-25T04:08:36;5.90;1.00
2062;DHT22;11070;51.336;12.340;2023-04-25T04:11:01;5.90;1.00
2062;DHT22;11070;51.336;12.340;2023-04-25T04:13:28;5.90;1.00
2062;DHT22;11070;51.336;12.340;2023-04-25T04:15:54;5.90;1.00
2062;DHT22;11070;51.336;12.340;2023-04-25T04:18:20;5.90;1.00
2062;DHT22;11070;51.336;12.340;2023-04-25T04:20:45;5.90;1.00
2062;DHT22;11070;51.336;12.340;2023-04-25T04:23:11;6.00;1.00
2062;DHT22;11070;51.336;12.340;2023-04-25T04:25:38;6.00;1.00
2062;DHT22;11070;51.336;12.340;2023-04-25T04:28:05;6.00;1.00
2062;DHT22;11070;51.336;12.340;2023-04-25T04:30:31;6.00;1.00
2062;DHT22;11070;51.336;12.340;2023-04-25T04:32:59;6.00;1.00
2062;DHT22;11070;51.336;12.340;2023-04-25T04:35:26;6.10;1.00
2062;DHT22;11070;51.336;12.340;2023-04-25T04:37:52;6.10;1.00
2062;DHT22;11070;51.336;12.340;2023-04-25T04:40:18;6.20;1.00
2062;DHT22;11070;51.336;12.340;2023-04-25T04:42:45;6.20;99.90
2062;DHT22;11070;51.336;12.340;2023-04-25T04:45:11;6.20;99.90
2062;DHT22;11070;51.336;12.340;2023-04-25T04:47:38;6.30;99.90
2062;DHT22;11070;51.336;12.340;2023-04-25T04:50:06;6.30;99.90
2062;DHT22;11070;51.336;12.340;2023-04-25T04:52:32;6.30;41.40
2062;DHT22;11070;51.336;12.340;2023-04-25T04:54:58;6.30;98.00
2062;DHT22;11070;51.336;12.340;2023-04-25T04:57:23;6.40;10.80
2062;DHT22;11070;51.336;12.340;2023-04-25T04:59:50;6.40;1.00
2062;DHT22;11070;51.336;12.340;2023-04-25T05:02:15;6.40;28.60
2062;DHT22;11070;51.336;12.340;2023-04-25T05:04:41;6.50;1.00
2062;DHT22;11070;51.336;12.340;2023-04-25T05:07:07;6.50;1.00
2062;DHT22;11070;51.336;12.340;2023-04-25T05:09:32;6.50;1.00
2062;DHT22;11070;51.336;12.340;2023-04-25T05:11:58;6.50;1.00
2062;DHT22;11070;51.336;12.340;2023-04-25T05:14:24;6.60;1.00
2062;DHT22;11070;51.336;12.340;2023-04-25T05:16:50;6.70;1.00
2062;DHT22;11070;51.336;12.340;2023-04-25T05:19:16;6.80;1.00
2062;DHT22;11070;51.336;12.340;2023-04-25T05:21:41;6.80;1.00
2062;DHT22;11070;51.336;12.340;2023-04-25T05:24:08;6.80;1.00
2062;DHT22;11070;51.336;12.340;2023-04-25T05:26:34;6.80;1.00
2062;DHT22;11070;51.336;12.340;2023-04-25T05:29:00;6.90;1.00
2062;DHT22;11070;51.336;12.340;2023-04-25T05:31:26;6.90;1.00
2062;DHT22;11070;51.336;12.340;2023-04-25T05:33:52;6.90;99.90
2062;DHT22;11070;51.336;12.340;2023-04-25T05:36:21;7.00;99.90
2062;DHT22;11070;51.336;12.340;2023-04-25T05:38:46;7.00;99.90
2062;DHT22;11070;51.336;12.340;2023-04-25T05:41:12;7.10;99.90
2062;DHT22;11070;51.336;12.340;2023-04-25T05:43:38;7.20;99.90
2062;DHT22;11070;51.336;12.340;2023-04-25T05:46:03;7.20;99.90
2062;DHT22;11070;51.336;12.340;2023-04-25T05:48:29;7.30;99.90
2062;DHT22;11070;51.336;12.340;2023-04-25T05:50:55;7.40;99.90
2062;DHT22;11070;51.336;12.340;2023-04-25T05:53:21;7.50;99.90
2062;DHT22;11070;51.336;12.340;2023-04-25T05:55:47;7.60;99.90
2062;DHT22;11070;51.336;12.340;2023-04-25T05:58:13;7.70;99.90
2062;DHT22;11070;51.336;12.340;2023-04-25T06:00:38;7.80;99.90
2062;DHT22;11070;51.336;12.340;2023-04-25T06:03:04;7.80;52.90
2062;DHT22;11070;51.336;12.340;2023-04-25T06:05:30;7.90;41.10
2062;DHT22;11070;51.336;12.340;2023-04-25T06:07:55;7.90;1.00
2062;DHT22;11070;51.336;12.340;2023-04-25T06:10:21;8.10;1.00
2062;DHT22;11070;51.336;12.340;2023-04-25T06:12:48;8.20;1.00
2062;DHT22;11070;51.336;12.340;2023-04-25T06:15:13;8.30;1.00
2062;DHT22;11070;51.336;12.340;2023-04-25T06:17:39;8.40;1.00
2062;DHT22;11070;51.336;12.340;2023-04-25T06:20:05;9.10;95.00
2062;DHT22;11070;51.336;12.340;2023-04-25T06:22:31;9.30;1.00
2062;DHT22;11070;51.336;12.340;2023-04-25T06:24:57;9.40;1.00
2062;DHT22;11070;51.336;12.340;2023-04-25T06:27:24;9.40;1.00
2062;DHT22;11070;51.336;12.340;2023-04-25T06:29:50;9.40;1.00
2062;DHT22;11070;51.336;12.340;2023-04-25T06:32:16;9.40;1.00
2062;DHT22;11070;51.336;12.340;2023-04-25T06:34:43;9.40;1.00
2062;DHT22;11070;51.336;12.340;2023-04-25T06:37:09;9.70;1.00
2062;DHT22;11070;51.336;12.340;2023-04-25T06:39:35;9.80;1.00
2062;DHT22;11070;51.336;12.340;2023-04-25T06:42:00;9.80;1.00
2062;DHT22;11070;51.336;12.340;2023-04-25T06:44:26;9.50;1.00
2062;DHT22;11070;51.336;12.340;2023-04-25T06:46:54;9.60;1.00
2062;DHT22;11070;51.336;12.340;2023-04-25T06:49:20;9.50;1.00
2062;DHT22;11070;51.336;12.340;2023-04-25T06:51:48;9.30;1.00
2062;DHT22;11070;51.336;12.340;2023-04-25T06:54:14;9.30;1.00
2062;DHT22;11070;51.336;12.340;2023-04-25T06:56:40;9.30;1.00
2062;DHT22;11070;51.336;12.340;2023-04-25T06:59:05;9.40;1.00
2062;DHT22;11070;51.336;12.340;2023-04-25T07:01:31;9.40;1.00
2062;DHT22;11070;51.336;12.340;2023-04-25T07:03:57;9.20;1.00
2062;DHT22;11070;51.336;12.340;2023-04-25T07:06:22;9.00;1.00
2062;DHT22;11070;51.336;12.340;2023-04-25T07:08:48;9.00;1.00
2062;DHT22;11070;51.336;12.340;2023-04-25T07:11:13;8.80;1.00
2062;DHT22;11070;51.336;12.340;2023-04-25T07:13:39;8.80;1.00
2062;DHT22;11070;51.336;12.340;2023-04-25T07:16:05;8.90;1.00
2062;DHT22;11070;51.336;12.340;2023-04-25T07:18:31;8.90;1.00
2062;DHT22;11070;51.336;12.340;2023-04-25T07:20:56;8.90;1.00
2062;DHT22;11070;51.336;12.340;2023-04-25T07:23:22;9.00;1.00
2062;DHT22;11070;51.336;12.340;2023-04-25T07:25:48;9.00;1.00
2062;DHT22;11070;51.336;12.340;2023-04-25T07:28:13;8.90;1.00
2062;DHT22;11070;51.336;12.340;2023-04-25T07:30:39;8.90;1.00
2062;DHT22;11070;51.336;12.340;2023-04-25T07:33:05;8.90;1.00
2062;DHT22;11070;51.336;12.340;2023-04-25T07:35:30;8.70;1.00
2062;DHT22;11070;51.336;12.340;2023-04-25T07:37:56;8.70;1.00
2062;DHT22;11070;51.336;12.340;2023-04-25T07:40:22;8.70;1.00
2062;DHT22;11070;51.336;12.340;2023-04-25T07:42:47;8.70;1.00
2062;DHT22;11070;51.336;12.340;2023-04-25T07:45:13;8.60;1.00
2062;DHT22;11070;51.336;12.340;2023-04-25T07:47:39;8.60;1.00
2062;DHT22;11070;51.336;12.340;2023-04-25T07:50:05;8.70;1.00
2062;DHT22;11070;51.336;12.340;2023-04-25T07:52:31;8.80;1.00
2062;DHT22;11070;51.336;12.340;2023-04-25T07:54:57;8.80;1.00
2062;DHT22;11070;51.336;12.340;2023-04-25T07:57:24;8.80;1.00
2062;DHT22;11070;51.336;12.340;2023-04-25T07:59:49;8.80;1.00
2062;DHT22;11070;51.336;12.340;2023-04-25T08:02:15;8.80;1.00
2062;DHT22;11070;51.336;12.340;2023-04-25T08:04:41;8.80;1.00
2062;DHT22;11070;51.336;12.340;2023-04-25T08:07:06;8.90;1.00
2062;DHT22;11070;51.336;12.340;2023-04-25T08:09:32;8.90;1.00
2062;DHT22;11070;51.336;12.340;2023-04-25T08:12:02;8.90;1.00
2062;DHT22;11070;51.336;12.340;2023-04-25T08:14:28;8.90;1.00
2062;DHT22;11070;51.336;12.340;2023-04-25T08:16:56;9.10;1.00
2062;DHT22;11070;51.336;12.340;2023-04-25T08:19:22;9.10;1.00
2062;DHT22;11070;51.336;12.340;2023-04-25T08:21:47;9.20;99.90
2062;DHT22;11070;51.336;12.340;2023-04-25T08:24:13;9.30;99.90
2062;DHT22;11070;51.336;12.340;2023-04-25T08:26:39;9.50;99.90
2062;DHT22;11070;51.336;12.340;2023-04-25T08:29:06;9.60;99.90
2062;DHT22;11070;51.336;12.340;2023-04-25T08:31:31;9.80;99.90
2062;DHT22;11070;51.336;12.340;2023-04-25T08:33:57;9.90;99.90
2062;DHT22;11070;51.336;12.340;2023-04-25T08:36:23;10.20;99.90
2062;DHT22;11070;51.336;12.340;2023-04-25T08:38:49;10.40;99.90
2062;DHT22;11070;51.336;12.340;2023-04-25T08:41:15;10.50;99.90
2062;DHT22;11070;51.336;12.340;2023-04-25T08:43:42;10.60;99.90
2062;DHT22;11070;51.336;12.340;2023-04-25T08:46:09;10.60;99.90
2062;DHT22;11070;51.336;12.340;2023-04-25T08:48:37;10.80;99.90
2062;DHT22;11070;51.336;12.340;2023-04-25T08:51:04;10.70;99.90
2062;DHT22;11070;51.336;12.340;2023-04-25T08:53:32;10.80;99.90
2062;DHT22;11070;51.336;12.340;2023-04-25T08:56:00;10.70;99.90
2062;DHT22;11070;51.336;12.340;2023-04-25T08:58:29;10.50;99.90
2062;DHT22;11070;51.336;12.340;2023-04-25T09:00:55;10.40;99.90
2062;DHT22;11070;51.336;12.340;2023-04-25T09:03:21;10.20;99.90
2062;DHT22;11070;51.336;12.340;2023-04-25T09:05:47;10.10;99.90
2062;DHT22;11070;51.336;12.340;2023-04-25T09:08:13;10.20;99.90
2062;DHT22;11070;51.336;12.340;2023-04-25T09:10:39;10.50;99.90
2062;DHT22;11070;51.336;12.340;2023-04-25T09:13:09;11.00;99.90
2062;DHT22;11070;51.336;12.340;2023-04-25T09:15:52;11.30;99.90
2062;DHT22;11070;51.336;12.340;2023-04-25T09:18:36;11.70;99.90
2062;DHT22;11070;51.336;12.340;2023-04-25T09:21:10;11.80;99.90
2062;DHT22;11070;51.336;12.340;2023-04-25T09:23:41;11.40;99.90
2062;DHT22;11070;51.336;12.340;2023-04-25T09:26:07;11.60;99.90
2062;DHT22;11070;51.336;12.340;2023-04-25T09:28:34;11.60;99.90
2062;DHT22;11070;51.336;12.340;2023-04-25T09:31:01;11.90;99.90
2062;DHT22;11070;51.336;12.340;2023-04-25T09:33:29;12.00;99.90
2062;DHT22;11070;51.336;12.340;2023-04-25T09:36:08;12.20;99.90
2062;DHT22;11070;51.336;12.340;2023-04-25T09:38:41;12.10;99.90
2062;DHT22;11070;51.336;12.340;2023-04-25T09:41:08;11.80;99.90
2062;DHT22;11070;51.336;12.340;2023-04-25T09:43:35;11.60;99.90
2062;DHT22;11070;51.336;12.340;2023-04-25T09:46:00;11.40;99.90
2062;DHT22;11070;51.336;12.340;2023-04-25T09:48:28;11.00;99.90
2062;DHT22;11070;51.336;12.340;2023-04-25T09:51:10;11.10;99.90
2062;DHT22;11070;51.336;12.340;2023-04-25T09:53:38;11.20;99.90
2062;DHT22;11070;51.336;12.340;2023-04-25T09:56:05;11.40;99.90
2062;DHT22;11070;51.336;12.340;2023-04-25T09:58:32;11.50;99.90
2062;DHT22;11070;51.336;12.340;2023-04-25T10:01:03;11.50;99.90
2062;DHT22;11070;51.336;12.340;2023-04-25T10:03:33;11.60;99.90
2062;DHT22;11070;51.336;12.340;2023-04-25T10:06:01;11.50;99.90
2062;DHT22;11070;51.336;12.340;2023-04-25T10:08:33;11.40;99.90
2062;DHT22;11070;51.336;12.340;2023-04-25T10:11:01;11.30;99.90
2062;DHT22;11070;51.336;12.340;2023-04-25T10:13:29;11.30;99.90
2062;DHT22;11070;51.336;12.340;2023-04-25T10:15:57;11.20;99.90
2062;DHT22;11070;51.336;12.340;2023-04-25T10:18:25;11.00;99.90
2062;DHT22;11070;51.336;12.340;2023-04-25T10:20:51;10.70;99.90
2062;DHT22;11070;51.336;12.340;2023-04-25T10:23:17;10.80;99.90
2062;DHT22;11070;51.336;12.340;2023-04-25T10:25:43;10.70;99.90
2062;DHT22;11070;51.336;12.340;2023-04-25T10:28:09;10.80;99.90
2062;DHT22;11070;51.336;12.340;2023-04-25T10:30:35;10.90;99.90
2062;DHT22;11070;51.336;12.340;2023-04-25T10:33:00;10.90;99.90
2062;DHT22;11070;51.336;12.340;2023-04-25T10:35:29;11.10;99.90
2062;DHT22;11070;51.336;12.340;2023-04-25T10:38:09;11.40;99.90
2062;DHT22;11070;51.336;12.340;2023-04-25T10:40:35;11.30;99.90
2062;DHT22;11070;51.336;12.340;2023-04-25T10:43:36;11.50;99.90
2062;DHT22;11070;51.336;12.340;2023-04-25T10:48:59;11.50;99.90
2062;DHT22;11070;51.336;12.340;2023-04-25T10:59:16;11.10;99.90
2062;DHT22;11070;51.336;12.340;2023-04-25T11:01:46;11.00;99.90
2062;DHT22;11070;51.336;12.340;2023-04-25T11:04:25;11.20;99.90
2062;DHT22;11070;51.336;12.340;2023-04-25T11:09:24;11.40;99.90
2062;DHT22;11070;51.336;12.340;2023-04-25T11:11:54;11.30;99.90
2062;DHT22;11070;51.336;12.340;2023-04-25T11:14:21;11.30;99.90
2062;DHT22;11070;51.336;12.340;2023-04-25T11:16:47;11.30;99.90
2062;DHT22;11070;51.336;12.340;2023-04-25T11:19:13;11.20;99.90
2062;DHT22;11070;51.336;12.340;2023-04-25T11:21:38;11.10;99.90
2062;DHT22;11070;51.336;12.340;2023-04-25T11:24:04;10.90;99.90
2062;DHT22;11070;51.336;12.340;2023-04-25T11:26:31;10.70;99.90
2062;DHT22;11070;51.336;12.340;2023-04-25T11:28:58;10.60;99.90
2062;DHT22;11070;51.336;12.340;2023-04-25T11:31:25;10.50;99.90
2062;DHT22;11070;51.336;12.340;2023-04-25T11:33:53;10.50;99.90
2062;DHT22;11070;51.336;12.340;2023-04-25T11:36:19;10.40;99.90
2062;DHT22;11070;51.336;12.340;2023-04-25T11:38:45;10.40;99.90
2062;DHT22;11070;51.336;12.340;2023-04-25T11:41:10;10.40;99.90
2062;DHT22;11070;51.336;12.340;2023-04-25T11:43:37;10.60;99.90
2062;DHT22;11070;51.336;12.340;2023-04-25T11:46:06;10.70;99.90
2062;DHT22;11070;51.336;12.340;2023-04-25T11:48:40;10.70;99.90
2062;DHT22;11070;51.336;12.340;2023-04-25T11:51:06;10.70;99.90
2062;DHT22;11070;51.336;12.340;2023-04-25T11:53:32;10.60;99.90
2062;DHT22;11070;51.336;12.340;2023-04-25T11:55:58;10.60;99.90
2062;DHT22;11070;51.336;12.340;2023-04-25T11:58:23;10.60;99.90
2062;DHT22;11070;51.336;12.340;2023-04-25T12:00:49;10.50;99.90
2062;DHT22;11070;51.336;12.340;2023-04-25T12:03:15;10.40;99.90
2062;DHT22;11070;51.336;12.340;2023-04-25T12:05:41;10.40;99.90
2062;DHT22;11070;51.336;12.340;2023-04-25T12:08:13;10.40;99.90
2062;DHT22;11070;51.336;12.340;2023-04-25T12:10:41;10.40;99.90
2062;DHT22;11070;51.336;12.340;2023-04-25T12:13:26;10.60;99.90
2062;DHT22;11070;51.336;12.340;2023-04-25T12:15:54;10.70;99.90
2062;DHT22;11070;51.336;12.340;2023-04-25T12:18:23;10.90;99.90
2062;DHT22;11070;51.336;12.340;2023-04-25T12:20:49;11.10;99.90
2062;DHT22;11070;51.336;12.340;2023-04-25T12:23:14;11.70;99.90
2062;DHT22;11070;51.336;12.340;2023-04-25T12:25:42;12.00;99.90
2062;DHT22;11070;51.336;12.340;2023-04-25T12:28:23;12.20;99.90
2062;DHT22;11070;51.336;12.340;2023-04-25T12:31:07;12.00;99.90
2062;DHT22;11070;51.336;12.340;2023-04-25T12:33:37;11.60;99.90
2062;DHT22;11070;51.336;12.340;2023-04-25T12:36:04;11.20;99.90
2062;DHT22;11070;51.336;12.340;2023-04-25T12:38:39;10.90;99.90
2062;DHT22;11070;51.336;12.340;2023-04-25T12:41:05;10.70;99.90
2062;DHT22;11070;51.336;12.340;2023-04-25T12:43:31;10.70;99.90
2062;DHT22;11070;51.336;12.340;2023-04-25T12:45:57;10.80;99.90
2062;DHT22;11070;51.336;12.340;2023-04-25T12:48:23;10.90;99.90
2062;DHT22;11070;51.336;12.340;2023-04-25T12:50:50;10.80;99.90
2062;DHT22;11070;51.336;12.340;2023-04-25T12:53:17;10.80;99.90
2062;DHT22;11070;51.336;12.340;2023-04-25T12:55:43;10.70;99.90
2062;DHT22;11070;51.336;12.340;2023-04-25T12:58:11;10.70;99.90
2062;DHT22;11070;51.336;12.340;2023-04-25T13:06:24;10.40;99.90
2062;DHT22;11070;51.336;12.340;2023-04-25T13:08:49;10.40;99.90
2062;DHT22;11070;51.336;12.340;2023-04-25T13:11:15;10.50;99.90
2062;DHT22;11070;51.336;12.340;2023-04-25T13:13:41;10.50;99.90
2062;DHT22;11070;51.336;12.340;2023-04-25T13:16:08;10.50;99.90
2062;DHT22;11070;51.336;12.340;2023-04-25T13:18:34;10.40;99.90
2062;DHT22;11070;51.336;12.340;2023-04-25T13:21:00;10.40;99.90
2062;DHT22;11070;51.336;12.340;2023-04-25T13:23:27;10.40;99.90
2062;DHT22;11070;51.336;12.340;2023-04-25T13:25:53;10.40;99.90
2062;DHT22;11070;51.336;12.340;2023-04-25T13:28:18;10.60;99.90
2062;DHT22;11070;51.336;12.340;2023-04-25T13:30:45;10.90;99.90
2062;DHT22;11070;51.336;12.340;2023-04-25T13:33:11;11.40;99.90
2062;DHT22;11070;51.336;12.340;2023-04-25T13:35:37;12.00;99.90
2062;DHT22;11070;51.336;12.340;2023-04-25T13:38:03;12.50;99.90
2062;DHT22;11070;51.336;12.340;2023-04-25T13:40:30;12.80;99.90
2062;DHT22;11070;51.336;12.340;2023-04-25T13:42:56;13.40;99.90
2062;DHT22;11070;51.336;12.340;2023-04-25T13:45:22;13.80;99.90
2062;DHT22;11070;51.336;12.340;2023-04-25T13:47:47;13.70;99.90
2062;DHT22;11070;51.336;12.340;2023-04-25T13:50:13;13.90;99.90
2062;DHT22;11070;51.336;12.340;2023-04-25T13:52:41;14.40;99.90
2062;DHT22;11070;51.336;12.340;2023-04-25T13:55:08;15.00;99.90
2062;DHT22;11070;51.336;12.340;2023-04-25T13:57:35;15.20;99.90
2062;DHT22;11070;51.336;12.340;2023-04-25T14:00:02;15.30;99.90
2062;DHT22;11070;51.336;12.340;2023-04-25T14:02:35;15.10;99.90
2062;DHT22;11070;51.336;12.340;2023-04-25T14:05:01;14.70;99.90
2062;DHT22;11070;51.336;12.340;2023-04-25T14:07:27;14.10;99.90
2062;DHT22;11070;51.336;12.340;2023-04-25T14:09:53;13.90;99.90
2062;DHT22;11070;51.336;12.340;2023-04-25T14:12:18;13.80;99.90
2062;DHT22;11070;51.336;12.340;2023-04-25T14:14:44;13.40;99.90
2062;DHT22;11070;51.336;12.340;2023-04-25T14:17:10;12.90;99.90
2062;DHT22;11070;51.336;12.340;2023-04-25T14:19:36;12.80;99.90
2062;DHT22;11070;51.336;12.340;2023-04-25T14:22:03;12.40;99.90
2062;DHT22;11070;51.336;12.340;2023-04-25T14:24:29;12.10;99.90
2062;DHT22;11070;51.336;12.340;2023-04-25T14:26:55;12.00;99.90
2062;DHT22;11070;51.336;12.340;2023-04-25T14:29:21;11.90;99.90
2062;DHT22;11070;51.336;12.340;2023-04-25T14:31:47;11.70;99.90
2062;DHT22;11070;51.336;12.340;2023-04-25T14:34:13;11.70;99.90
2062;DHT22;11070;51.336;12.340;2023-04-25T14:36:38;11.70;99.90
2062;DHT22;11070;51.336;12.340;2023-04-25T14:39:04;11.70;99.90
2062;DHT22;11070;51.336;12.340;2023-04-25T14:41:33;11.90;99.90
2062;DHT22;11070;51.336;12.340;2023-04-25T14:43:59;12.00;99.90
2062;DHT22;11070;51.336;12.340;2023-04-25T14:46:25;11.90;99.90
2062;DHT22;11070;51.336;12.340;2023-04-25T14:48:51;11.90;99.90
2062;DHT22;11070;51.336;12.340;2023-04-25T14:51:16;11.90;99.90
2062;DHT22;11070;51.336;12.340;2023-04-25T14:53:42;12.10;99.90
2062;DHT22;11070;51.336;12.340;2023-04-25T14:56:08;12.20;99.90
2062;DHT22;11070;51.336;12.340;2023-04-25T14:58:34;12.30;99.90
2062;DHT22;11070;51.336;12.340;2023-04-25T15:01:00;12.30;99.90
2062;DHT22;11070;51.336;12.340;2023-04-25T15:03:26;12.20;99.90
2062;DHT22;11070;51.336;12.340;2023-04-25T15:05:55;12.10;99.90
2062;DHT22;11070;51.336;12.340;2023-04-25T15:08:21;12.00;99.90
2062;DHT22;11070;51.336;12.340;2023-04-25T15:10:47;11.80;99.90
2062;DHT22;11070;51.336;12.340;2023-04-25T15:13:12;11.60;99.90
2062;DHT22;11070;51.336;12.340;2023-04-25T15:15:38;11.60;99.90
2062;DHT22;11070;51.336;12.340;2023-04-25T15:18:04;11.70;99.90
2062;DHT22;11070;51.336;12.340;2023-04-25T15:20:30;11.80;99.90
2062;DHT22;11070;51.336;12.340;2023-04-25T15:22:56;11.80;99.90
2062;DHT22;11070;51.336;12.340;2023-04-25T15:25:22;11.90;99.90
2062;DHT22;11070;51.336;12.340;2023-04-25T15:27:48;11.90;99.90
2062;DHT22;11070;51.336;12.340;2023-04-25T15:30:15;11.90;99.90
2062;DHT22;11070;51.336;12.340;2023-04-25T15:32:42;11.80;99.90
2062;DHT22;11070;51.336;12.340;2023-04-25T15:35:08;11.80;99.90
2062;DHT22;11070;51.336;12.340;2023-04-25T15:37:35;11.90;99.90
2062;DHT22;11070;51.336;12.340;2023-04-25T15:40:04;11.90;99.90
2062;DHT22;11070;51.336;12.340;2023-04-25T15:42:35;11.80;99.90
2062;DHT22;11070;51.336;12.340;2023-04-25T15:45:03;11.70;99.90
2062;DHT22;11070;51.336;12.340;2023-04-25T15:47:28;11.60;99.90
2062;DHT22;11070;51.336;12.340;2023-04-25T15:49:54;11.60;99.90
2062;DHT22;11070;51.336;12.340;2023-04-25T15:52:20;11.60;99.90
2062;DHT22;11070;51.336;12.340;2023-04-25T15:54:46;11.50;99.90
2062;DHT22;11070;51.336;12.340;2023-04-25T15:57:12;11.50;99.90
2062;DHT22;11070;51.336;12.340;2023-04-25T15:59:38;11.50;99.90
2062;DHT22;11070;51.336;12.340;2023-04-25T16:02:04;11.40;99.90